Time;durP1;ratioP1;P1;durP2;ratioP2;P2;SDS_P1;SDS_P2;PMS_P1;PMS_P2;Temp;Humidity;BMP_temperature;BMP_pressure;BME280_temperature;BME280_humidity;BME280_pressure;Samples;Min_cycle;Max_cycle;Signal;HPM_P1;HPM_P2
2023/07/12 00:00:03;;;;;;;0.00;0.00;;;;;;;;;;5063452;28;20259;-69
2023/07/12 00:02:30;;;;;;;0.00;0.00;;;;;;;;;;5085395;28;20242;-68
2023/07/12 00:04:57;;;;;;;0.00;0.00;;;;;;;;;;5063650;28;20235;-69
2023/07/12 00:07:23;;;;;;;0.00;0.00;;;;;;;;;;5085359;28;20242;-68
2023/07/12 00:09:49;;;;;;;0.10;0.10;;;;;;;;;;5063517;28;20204;-69
2023/07/12 00:12:16;;;;;;;0.00;0.00;;;;;;;;;;5085344;28;20311;-68
2023/07/12 00:14:42;;;;;;;0.00;0.00;;;;;;;;;;5063131;28;20235;-69
2023/07/12 00:17:09;;;;;;;0.10;0.10;;;;;;;;;;5085266;28;20309;-68
2023/07/12 00:19:37;;;;;;;0.10;0.10;;;;;;;;;;5063422;28;20547;-68
2023/07/12 00:22:04;;;;;;;0.00;0.00;;;;;;;;;;5084309;28;20238;-68
2023/07/12 00:24:30;;;;;;;0.25;0.25;;;;;;;;;;5064229;28;20267;-68
2023/07/12 00:26:58;;;;;;;0.00;0.00;;;;;;;;;;5082289;28;20239;-68
2023/07/12 00:29:24;;;;;;;0.20;0.20;;;;;;;;;;5065766;28;20200;-68
2023/07/12 00:31:50;;;;;;;0.00;0.00;;;;;;;;;;5080587;28;20526;-69
2023/07/12 00:34:17;;;;;;;0.10;0.10;;;;;;;;;;5067684;28;20204;-68
2023/07/12 00:36:45;;;;;;;0.10;0.10;;;;;;;;;;5078475;28;20265;-69
2023/07/12 00:39:12;;;;;;;0.00;0.00;;;;;;;;;;5069199;28;20464;-70
2023/07/12 00:41:48;;;;;;;0.00;0.00;;;;;;;;;;5077089;28;20262;-70
2023/07/12 00:44:17;;;;;;;0.00;0.00;;;;;;;;;;5067984;28;20248;-70
2023/07/12 00:46:47;;;;;;;1.30;0.47;;;;;;;;;;5078630;28;20507;-71
2023/07/12 00:49:13;;;;;;;0.10;0.10;;;;;;;;;;5068255;28;20200;-70
2023/07/12 00:51:45;;;;;;;0.55;0.55;;;;;;;;;;5077549;28;20254;-70
2023/07/12 00:54:14;;;;;;;0.10;0.10;;;;;;;;;;5068890;28;20204;-70
2023/07/12 00:56:41;;;;;;;0.00;0.00;;;;;;;;;;5079466;28;20250;-70
2023/07/12 00:59:11;;;;;;;0.00;0.00;;;;;;;;;;5073427;28;20290;-70
2023/07/12 01:01:38;;;;;;;0.20;0.20;;;;;;;;;;5080825;28;20239;-70
2023/07/12 01:04:05;;;;;;;0.00;0.00;;;;;;;;;;5074277;28;20226;-71
2023/07/12 01:06:32;;;;;;;0.03;0.03;;;;;;;;;;5078903;28;20302;-71
2023/07/12 01:09:00;;;;;;;0.05;0.05;;;;;;;;;;5075975;28;20267;-70
2023/07/12 01:11:29;;;;;;;0.00;0.00;;;;;;;;;;5077386;28;20261;-70
2023/07/12 01:13:55;;;;;;;0.00;0.00;;;;;;;;;;5077158;28;20447;-71
2023/07/12 01:16:23;;;;;;;1.73;1.70;;;;;;;;;;5076055;28;20310;-71
2023/07/12 01:18:49;;;;;;;0.00;0.00;;;;;;;;;;5078282;28;20295;-71
2023/07/12 01:21:18;;;;;;;0.10;0.10;;;;;;;;;;5074316;28;20305;-72
2023/07/12 01:23:45;;;;;;;0.00;0.00;;;;;;;;;;5079172;28;20239;-71
2023/07/12 01:26:19;;;;;;;0.00;0.00;;;;;;;;;;5073114;28;20306;-71
2023/07/12 01:28:47;;;;;;;0.00;0.00;;;;;;;;;;5078640;28;20194;-71
2023/07/12 01:31:14;;;;;;;0.00;0.00;;;;;;;;;;5073630;28;20246;-71
2023/07/12 01:33:40;;;;;;;0.10;0.10;;;;;;;;;;5080086;28;20242;-71
2023/07/12 01:36:07;;;;;;;0.00;0.00;;;;;;;;;;5071737;28;20303;-71
2023/07/12 01:38:35;;;;;;;0.00;0.00;;;;;;;;;;5082014;28;20397;-71
2023/07/12 01:41:01;;;;;;;0.05;0.05;;;;;;;;;;5069832;28;20242;-71
2023/07/12 01:43:28;;;;;;;0.00;0.00;;;;;;;;;;5083629;28;20226;-71
2023/07/12 01:45:54;;;;;;;0.00;0.00;;;;;;;;;;5067970;28;20246;-71
2023/07/12 01:48:20;;;;;;;0.00;0.00;;;;;;;;;;5085590;28;20321;-71
2023/07/12 01:50:47;;;;;;;0.00;0.00;;;;;;;;;;5066203;28;20261;-72
2023/07/12 01:53:13;;;;;;;0.20;0.20;;;;;;;;;;5087104;28;20271;-72
2023/07/12 01:55:42;;;;;;;0.10;0.10;;;;;;;;;;5064176;28;20269;-71
2023/07/12 01:58:08;;;;;;;0.00;0.00;;;;;;;;;;5088828;28;20359;-72
2023/07/12 02:00:35;;;;;;;0.43;0.43;;;;;;;;;;5062652;28;20242;-72
2023/07/12 02:03:02;;;;;;;0.10;0.10;;;;;;;;;;5090194;28;20278;-71
2023/07/12 02:05:29;;;;;;;0.00;0.00;;;;;;;;;;5061142;28;20265;-71
2023/07/12 02:07:56;;;;;;;0.00;0.00;;;;;;;;;;5091033;28;20204;-72
2023/07/12 02:10:24;;;;;;;0.00;0.00;;;;;;;;;;5059328;28;20208;-71
2023/07/12 02:12:52;;;;;;;0.00;0.00;;;;;;;;;;5093303;28;20192;-72
2023/07/12 02:15:18;;;;;;;0.17;0.17;;;;;;;;;;5058195;28;20235;-71
2023/07/12 02:17:45;;;;;;;0.00;0.00;;;;;;;;;;5094309;28;20259;-71
2023/07/12 02:20:12;;;;;;;0.00;0.00;;;;;;;;;;5056290;28;20256;-71
2023/07/12 02:22:41;;;;;;;0.00;0.00;;;;;;;;;;5096222;28;20199;-70
2023/07/12 02:25:09;;;;;;;0.00;0.00;;;;;;;;;;5058678;28;20238;-71
2023/07/12 02:27:35;;;;;;;1.05;0.50;;;;;;;;;;5096910;28;20504;-72
2023/07/12 02:30:03;;;;;;;0.00;0.00;;;;;;;;;;5065229;28;20223;-71
2023/07/12 02:32:29;;;;;;;0.45;0.45;;;;;;;;;;5087005;28;20310;-71
2023/07/12 02:34:56;;;;;;;0.00;0.00;;;;;;;;;;5064753;28;20453;-71
2023/07/12 02:37:22;;;;;;;0.00;0.00;;;;;;;;;;5087070;28;20626;-71
2023/07/12 02:39:48;;;;;;;0.00;0.00;;;;;;;;;;5064903;28;20224;-71
2023/07/12 02:42:15;;;;;;;0.00;0.00;;;;;;;;;;5086716;28;20245;-70
2023/07/12 02:44:41;;;;;;;0.00;0.00;;;;;;;;;;5065015;28;20235;-74
2023/07/12 02:47:10;;;;;;;0.30;0.30;;;;;;;;;;5086611;28;20310;-74
2023/07/12 02:49:36;;;;;;;0.20;0.20;;;;;;;;;;5064486;28;20215;-73
2023/07/12 02:52:04;;;;;;;0.22;0.22;;;;;;;;;;5085140;28;20239;-74
2023/07/12 02:54:30;;;;;;;0.00;0.00;;;;;;;;;;5065701;28;20204;-74
2023/07/12 02:56:57;;;;;;;0.00;0.00;;;;;;;;;;5083529;28;20305;-73
2023/07/12 02:59:23;;;;;;;0.00;0.00;;;;;;;;;;5067115;28;20444;-74
2023/07/12 03:01:50;;;;;;;0.00;0.00;;;;;;;;;;5081427;28;20313;-74
2023/07/12 03:04:17;;;;;;;0.40;0.40;;;;;;;;;;5069033;28;20211;-74
2023/07/12 03:06:44;;;;;;;0.00;0.00;;;;;;;;;;5079883;28;20238;-74
2023/07/12 03:09:10;;;;;;;0.00;0.00;;;;;;;;;;5070344;28;20492;-73
2023/07/12 03:11:37;;;;;;;0.00;0.00;;;;;;;;;;5077856;28;20301;-74
2023/07/12 03:14:04;;;;;;;0.05;0.05;;;;;;;;;;5072279;28;20222;-74
2023/07/12 03:16:30;;;;;;;0.00;0.00;;;;;;;;;;5075954;28;20347;-74
2023/07/12 03:18:57;;;;;;;0.03;0.03;;;;;;;;;;5073758;28;20248;-74
2023/07/12 03:21:24;;;;;;;1.55;1.55;;;;;;;;;;5073211;28;20262;-74
2023/07/12 03:23:51;;;;;;;0.00;0.00;;;;;;;;;;5075833;28;20242;-74
2023/07/12 03:26:17;;;;;;;0.00;0.00;;;;;;;;;;5072576;28;20281;-74
2023/07/12 03:28:44;;;;;;;0.10;0.10;;;;;;;;;;5076868;28;20231;-73
2023/07/12 03:31:12;;;;;;;0.00;0.00;;;;;;;;;;5070851;28;20245;-75
2023/07/12 03:33:39;;;;;;;0.00;0.00;;;;;;;;;;5078507;28;20271;-74
2023/07/12 03:36:06;;;;;;;0.00;0.00;;;;;;;;;;5069240;28;20529;-75
2023/07/12 03:38:33;;;;;;;0.30;0.30;;;;;;;;;;5080337;28;20271;-73
2023/07/12 03:41:01;;;;;;;0.00;0.00;;;;;;;;;;5067754;28;20254;-74
2023/07/12 03:43:27;;;;;;;0.00;0.00;;;;;;;;;;5081514;28;20231;-74
2023/07/12 03:45:54;;;;;;;0.00;0.00;;;;;;;;;;5066003;28;20490;-73
2023/07/12 03:48:21;;;;;;;0.00;0.00;;;;;;;;;;5083126;28;20204;-73
2023/07/12 03:50:48;;;;;;;0.00;0.00;;;;;;;;;;5064263;28;20257;-73
2023/07/12 03:53:14;;;;;;;0.10;0.10;;;;;;;;;;5084652;28;20204;-73
2023/07/12 03:55:42;;;;;;;0.10;0.10;;;;;;;;;;5062663;28;20527;-74
2023/07/12 03:58:10;;;;;;;0.00;0.00;;;;;;;;;;5086297;28;20226;-73
2023/07/12 04:00:39;;;;;;;0.00;0.00;;;;;;;;;;5060549;28;20249;-74
2023/07/12 04:03:06;;;;;;;0.00;0.00;;;;;;;;;;5087359;28;20279;-73
2023/07/12 04:05:36;;;;;;;0.00;0.00;;;;;;;;;;5059725;28;20302;-73
2023/07/12 04:08:03;;;;;;;0.10;0.10;;;;;;;;;;5087937;28;20275;-73
2023/07/12 04:10:29;;;;;;;0.10;0.10;;;;;;;;;;5059177;28;20296;-73
2023/07/12 04:12:57;;;;;;;0.00;0.00;;;;;;;;;;5089472;28;20274;-73
2023/07/12 04:15:23;;;;;;;0.00;0.00;;;;;;;;;;5057704;28;20208;-73
2023/07/12 04:17:50;;;;;;;0.00;0.00;;;;;;;;;;5091226;28;20391;-73
2023/07/12 04:20:17;;;;;;;15.23;1.00;;;;;;;;;;5055737;28;20224;-73
2023/07/12 04:22:43;;;;;;;0.00;0.00;;;;;;;;;;5092865;28;20199;-73
2023/07/12 04:25:10;;;;;;;0.00;0.00;;;;;;;;;;5053832;28;20275;-72
2023/07/12 04:27:37;;;;;;;0.00;0.00;;;;;;;;;;5094562;28;20234;-73
2023/07/12 04:30:06;;;;;;;0.00;0.00;;;;;;;;;;5063321;28;20204;-73
2023/07/12 04:32:32;;;;;;;0.00;0.00;;;;;;;;;;5088670;28;20302;-73
2023/07/12 04:34:59;;;;;;;0.00;0.00;;;;;;;;;;5067422;28;20445;-73
2023/07/12 04:37:25;;;;;;;0.00;0.00;;;;;;;;;;5089217;28;20579;-73
2023/07/12 04:39:52;;;;;;;0.00;0.00;;;;;;;;;;5067177;28;20227;-73
2023/07/12 04:42:18;;;;;;;0.10;0.10;;;;;;;;;;5089085;28;20302;-73
2023/07/12 04:44:45;;;;;;;0.00;0.00;;;;;;;;;;5067300;28;20275;-73
2023/07/12 04:47:15;;;;;;;0.00;0.00;;;;;;;;;;5089038;28;20454;-73
2023/07/12 04:49:43;;;;;;;0.00;0.00;;;;;;;;;;5067203;28;20238;-73
2023/07/12 04:52:11;;;;;;;0.00;0.00;;;;;;;;;;5088788;28;20242;-73
2023/07/12 04:54:39;;;;;;;0.10;0.10;;;;;;;;;;5066901;28;20278;-73
2023/07/12 04:57:05;;;;;;;0.00;0.00;;;;;;;;;;5088190;28;20506;-73
2023/07/12 04:59:32;;;;;;;0.00;0.00;;;;;;;;;;5067179;28;20471;-73
2023/07/12 05:01:58;;;;;;;0.00;0.00;;;;;;;;;;5086142;28;20573;-73
2023/07/12 05:04:26;;;;;;;0.10;0.10;;;;;;;;;;5069161;28;20219;-74
2023/07/12 05:06:52;;;;;;;0.00;0.00;;;;;;;;;;5084376;28;20239;-73
2023/07/12 05:09:20;;;;;;;0.00;0.00;;;;;;;;;;5070498;28;20443;-73
2023/07/12 05:11:46;;;;;;;0.00;0.00;;;;;;;;;;5082755;28;20471;-73
2023/07/12 05:14:13;;;;;;;0.00;0.00;;;;;;;;;;5072167;28;20204;-73
2023/07/12 05:16:39;;;;;;;0.00;0.00;;;;;;;;;;5080417;28;20316;-73
2023/07/12 05:19:05;;;;;;;0.00;0.00;;;;;;;;;;5074285;28;20243;-74
2023/07/12 05:21:33;;;;;;;0.17;0.17;;;;;;;;;;5078649;28;20246;-73
2023/07/12 05:23:59;;;;;;;0.00;0.00;;;;;;;;;;5075766;28;20215;-73
2023/07/12 05:26:26;;;;;;;0.10;0.10;;;;;;;;;;5077063;28;20254;-74
2023/07/12 05:28:53;;;;;;;0.00;0.00;;;;;;;;;;5077474;28;20466;-73
2023/07/12 05:31:19;;;;;;;0.10;0.10;;;;;;;;;;5075124;28;20238;-73
2023/07/12 05:33:46;;;;;;;0.00;0.00;;;;;;;;;;5078794;28;20274;-73
2023/07/12 05:36:13;;;;;;;0.00;0.00;;;;;;;;;;5073195;28;20238;-73
2023/07/12 05:38:41;;;;;;;0.00;0.00;;;;;;;;;;5080375;28;20203;-72
2023/07/12 05:41:08;;;;;;;0.00;0.00;;;;;;;;;;5071512;28;20261;-73
2023/07/12 05:43:34;;;;;;;0.00;0.00;;;;;;;;;;5080841;28;20271;-73
2023/07/12 05:46:01;;;;;;;0.10;0.10;;;;;;;;;;5069849;28;20265;-73
2023/07/12 05:48:27;;;;;;;0.00;0.00;;;;;;;;;;5083748;28;20460;-73
2023/07/12 05:50:54;;;;;;;0.00;0.00;;;;;;;;;;5068048;28;20264;-74
2023/07/12 05:53:21;;;;;;;0.30;0.30;;;;;;;;;;5085354;28;20275;-73
2023/07/12 05:55:54;;;;;;;0.00;0.00;;;;;;;;;;5066412;28;20306;-74
2023/07/12 05:58:20;;;;;;;0.20;0.20;;;;;;;;;;5085659;28;20192;-74
2023/07/12 06:00:47;;;;;;;0.00;0.00;;;;;;;;;;5065066;28;20246;-74
2023/07/12 06:03:13;;;;;;;0.00;0.00;;;;;;;;;;5087761;28;20263;-74
2023/07/12 06:05:41;;;;;;;0.00;0.00;;;;;;;;;;5063997;28;20313;-74
2023/07/12 06:08:08;;;;;;;0.00;0.00;;;;;;;;;;5088729;28;20230;-74
2023/07/12 06:10:34;;;;;;;0.00;0.00;;;;;;;;;;5062587;28;20269;-73
2023/07/12 06:13:02;;;;;;;0.00;0.00;;;;;;;;;;5090369;28;20271;-74
2023/07/12 06:15:28;;;;;;;0.00;0.00;;;;;;;;;;5060923;28;20287;-73
2023/07/12 06:17:55;;;;;;;0.00;0.00;;;;;;;;;;5092163;28;20362;-74
2023/07/12 06:20:21;;;;;;;0.00;0.00;;;;;;;;;;5058838;28;20551;-73
2023/07/12 06:22:47;;;;;;;0.00;0.00;;;;;;;;;;5093881;28;20383;-74
2023/07/12 06:25:14;;;;;;;0.00;0.00;;;;;;;;;;5056816;28;20212;-73
2023/07/12 06:27:40;;;;;;;0.00;0.00;;;;;;;;;;5095712;28;20264;-76
2023/07/12 06:30:08;;;;;;;0.00;0.00;;;;;;;;;;5065149;28;20271;-76
2023/07/12 06:32:35;;;;;;;0.00;0.00;;;;;;;;;;5053841;28;20227;-73
2023/07/12 06:35:02;;;;;;;0.10;0.10;;;;;;;;;;5065141;28;20235;-73
2023/07/12 06:37:28;;;;;;;0.00;0.00;;;;;;;;;;5086957;28;20243;-73
2023/07/12 06:39:55;;;;;;;0.00;0.00;;;;;;;;;;5064980;28;20231;-73
2023/07/12 06:42:21;;;;;;;0.00;0.00;;;;;;;;;;5086872;28;20297;-73
2023/07/12 06:44:47;;;;;;;0.03;0.03;;;;;;;;;;5064903;28;20270;-74
2023/07/12 06:47:15;;;;;;;0.00;0.00;;;;;;;;;;5086893;28;20265;-74
2023/07/12 06:49:41;;;;;;;0.00;0.00;;;;;;;;;;5064807;28;20275;-74
2023/07/12 06:52:10;;;;;;;0.00;0.00;;;;;;;;;;5086720;28;20314;-73
2023/07/12 06:54:36;;;;;;;0.00;0.00;;;;;;;;;;5064730;28;20204;-74
2023/07/12 06:57:02;;;;;;;0.00;0.00;;;;;;;;;;5085020;28;20238;-74
2023/07/12 06:59:29;;;;;;;0.00;0.00;;;;;;;;;;5065652;28;20231;-74
2023/07/12 07:01:55;;;;;;;0.00;0.00;;;;;;;;;;5082638;28;20313;-73
2023/07/12 07:04:23;;;;;;;0.00;0.00;;;;;;;;;;5067996;28;20208;-74
2023/07/12 07:06:49;;;;;;;0.00;0.00;;;;;;;;;;5081373;28;20254;-74
2023/07/12 07:09:16;;;;;;;1.65;0.57;;;;;;;;;;5069090;28;20270;-68
2023/07/12 07:11:42;;;;;;;0.00;0.00;;;;;;;;;;5079382;28;20234;-68
2023/07/12 07:14:08;;;;;;;0.00;0.00;;;;;;;;;;5071138;28;20450;-69
2023/07/12 07:16:35;;;;;;;0.00;0.00;;;;;;;;;;5076686;28;20306;-74
2023/07/12 07:19:01;;;;;;;0.00;0.00;;;;;;;;;;5073247;28;20200;-67
2023/07/12 07:21:30;;;;;;;0.00;0.00;;;;;;;;;;5075260;28;20246;-72
2023/07/12 07:23:56;;;;;;;0.00;0.00;;;;;;;;;;5074560;28;20290;-72
2023/07/12 07:26:22;;;;;;;0.00;0.00;;;;;;;;;;5073666;28;20239;-70
2023/07/12 07:28:49;;;;;;;0.00;0.00;;;;;;;;;;5075993;28;20240;-69
2023/07/12 07:31:15;;;;;;;0.00;0.00;;;;;;;;;;5071629;28;20302;-74
2023/07/12 07:33:42;;;;;;;0.00;0.00;;;;;;;;;;5077596;28;20212;-73
2023/07/12 07:36:09;;;;;;;0.00;0.00;;;;;;;;;;5069850;28;20296;-72
2023/07/12 07:38:38;;;;;;;0.00;0.00;;;;;;;;;;5079351;28;20204;-74
2023/07/12 07:41:05;;;;;;;0.00;0.00;;;;;;;;;;5068586;28;20849;-73
2023/07/12 07:43:32;;;;;;;0.00;0.00;;;;;;;;;;5080486;28;20210;-70
2023/07/12 07:45:58;;;;;;;0.15;0.15;;;;;;;;;;5066576;28;20238;-76
2023/07/12 07:48:25;;;;;;;0.30;0.30;;;;;;;;;;5082286;28;20246;-74
2023/07/12 07:50:51;;;;;;;0.45;0.45;;;;;;;;;;5065337;28;20265;-72
2023/07/12 07:53:17;;;;;;;0.10;0.10;;;;;;;;;;5084226;28;20503;-71
2023/07/12 07:55:45;;;;;;;0.00;0.00;;;;;;;;;;5063544;28;20242;-72
2023/07/12 07:58:12;;;;;;;0.10;0.10;;;;;;;;;;5085985;28;20208;-70
2023/07/12 08:00:38;;;;;;;0.00;0.00;;;;;;;;;;5061050;28;20245;-70
2023/07/12 08:03:09;;;;;;;0.15;0.15;;;;;;;;;;5087779;28;20254;-74
2023/07/12 08:05:35;;;;;;;0.00;0.00;;;;;;;;;;5060438;28;20479;-73
2023/07/12 08:08:02;;;;;;;0.00;0.00;;;;;;;;;;5088396;28;20211;-76
2023/07/12 08:10:28;;;;;;;0.10;0.10;;;;;;;;;;5059028;28;20529;-73
2023/07/12 08:12:56;;;;;;;0.10;0.10;;;;;;;;;;5090346;28;20431;-72
2023/07/12 08:15:23;;;;;;;0.00;0.00;;;;;;;;;;5057438;28;20243;-74
2023/07/12 08:17:50;;;;;;;0.00;0.00;;;;;;;;;;5091365;28;20192;-70
2023/07/12 08:20:16;;;;;;;0.25;0.15;;;;;;;;;;5055377;28;20227;-69
2023/07/12 08:22:43;;;;;;;0.20;0.20;;;;;;;;;;5093286;28;20219;-74
2023/07/12 08:25:10;;;;;;;0.00;0.00;;;;;;;;;;5053449;28;20400;-73
2023/07/12 08:27:36;;;;;;;0.00;0.00;;;;;;;;;;5094770;28;20204;-74
2023/07/12 08:30:04;;;;;;;0.10;0.10;;;;;;;;;;5063567;28;20246;-71
2023/07/12 08:32:32;;;;;;;0.00;0.00;;;;;;;;;;5085394;28;20244;-70
2023/07/12 08:34:59;;;;;;;0.00;0.00;;;;;;;;;;5063391;28;20203;-71
2023/07/12 08:37:26;;;;;;;0.00;0.00;;;;;;;;;;5085326;28;20272;-70
2023/07/12 08:39:52;;;;;;;0.00;0.00;;;;;;;;;;5063361;28;20204;-71
2023/07/12 08:42:20;;;;;;;0.00;0.00;;;;;;;;;;5085133;28;20249;-71
2023/07/12 08:44:47;;;;;;;0.00;0.00;;;;;;;;;;5063412;28;20204;-70
2023/07/12 08:47:17;;;;;;;0.00;0.00;;;;;;;;;;5085117;28;20506;-70
2023/07/12 08:49:44;;;;;;;0.00;0.00;;;;;;;;;;5063018;28;20250;-71
2023/07/12 08:52:14;;;;;;;0.00;0.00;;;;;;;;;;5085168;28;20239;-71
2023/07/12 08:54:41;;;;;;;0.00;0.00;;;;;;;;;;5063429;28;20383;-72
2023/07/12 08:57:16;;;;;;;0.00;0.00;;;;;;;;;;5084995;28;20486;-71
2023/07/12 08:59:46;;;;;;;0.00;0.00;;;;;;;;;;5063285;28;20271;-70
2023/07/12 09:02:18;;;;;;;0.00;0.00;;;;;;;;;;5085135;28;20239;-71
2023/07/12 09:04:45;;;;;;;0.00;0.00;;;;;;;;;;5063280;28;20208;-71
2023/07/12 09:07:11;;;;;;;0.03;0.03;;;;;;;;;;5084977;28;20238;-71
2023/07/12 09:09:38;;;;;;;0.00;0.00;;;;;;;;;;5063067;28;20235;-71
2023/07/12 09:12:07;;;;;;;0.00;0.00;;;;;;;;;;5084041;28;20302;-71
2023/07/12 09:14:35;;;;;;;0.00;0.00;;;;;;;;;;5063210;28;20310;-71
2023/07/12 09:17:01;;;;;;;0.00;0.00;;;;;;;;;;5082686;28;20269;-72
2023/07/12 09:19:31;;;;;;;0.10;0.10;;;;;;;;;;5067677;28;20271;-72
2023/07/12 09:21:59;;;;;;;0.00;0.00;;;;;;;;;;5085852;28;20258;-72
2023/07/12 09:24:26;;;;;;;0.00;0.00;;;;;;;;;;5068688;28;20444;-72
2023/07/12 09:27:02;;;;;;;0.10;0.10;;;;;;;;;;5084592;28;20310;-72
2023/07/12 09:29:28;;;;;;;0.00;0.00;;;;;;;;;;5067401;28;20270;-72
2023/07/12 09:31:58;;;;;;;0.00;0.00;;;;;;;;;;5084495;28;20258;-72
2023/07/12 09:34:26;;;;;;;0.00;0.00;;;;;;;;;;5069212;28;20380;-73
2023/07/12 09:36:57;;;;;;;0.00;0.00;;;;;;;;;;5083895;28;20474;-72
2023/07/12 09:39:27;;;;;;;0.03;0.03;;;;;;;;;;5069315;28;20243;-73
2023/07/12 09:41:56;;;;;;;0.00;0.00;;;;;;;;;;5084004;28;20305;-72
2023/07/12 09:44:22;;;;;;;0.00;0.00;;;;;;;;;;5069019;28;20204;-72
2023/07/12 09:46:50;;;;;;;0.00;0.00;;;;;;;;;;5082763;28;20238;-72
2023/07/12 09:49:19;;;;;;;0.00;0.00;;;;;;;;;;5070442;28;20212;-72
2023/07/12 09:51:49;;;;;;;0.00;0.00;;;;;;;;;;5081626;28;20230;-72
2023/07/12 09:54:25;;;;;;;0.00;0.00;;;;;;;;;;5071124;28;20279;-72
2023/07/12 09:56:53;;;;;;;0.00;0.00;;;;;;;;;;5083472;28;20593;-72
2023/07/12 09:59:33;;;;;;;0.00;0.00;;;;;;;;;;5070579;28;20415;-72
2023/07/12 10:02:09;;;;;;;0.00;0.00;;;;;;;;;;5085586;28;20273;-72
2023/07/12 10:04:38;;;;;;;0.10;0.10;;;;;;;;;;5065859;28;20226;-72
2023/07/12 10:07:08;;;;;;;0.00;0.00;;;;;;;;;;5086567;28;20443;-72
2023/07/12 10:09:37;;;;;;;0.10;0.10;;;;;;;;;;5064386;28;20208;-71
2023/07/12 10:12:09;;;;;;;0.00;0.00;;;;;;;;;;5086643;28;20241;-72
2023/07/12 10:14:38;;;;;;;0.00;0.00;;;;;;;;;;5065539;28;20204;-72
2023/07/12 10:17:06;;;;;;;0.10;0.10;;;;;;;;;;5086193;28;20242;-72
2023/07/12 10:19:34;;;;;;;0.00;0.00;;;;;;;;;;5066012;28;20515;-72
2023/07/12 10:22:04;;;;;;;0.00;0.00;;;;;;;;;;5085223;28;20230;-72
2023/07/12 10:24:34;;;;;;;0.10;0.10;;;;;;;;;;5066346;28;20427;-71
2023/07/12 10:27:04;;;;;;;0.30;0.30;;;;;;;;;;5084964;28;20290;-72
2023/07/12 10:29:37;;;;;;;0.00;0.00;;;;;;;;;;5065990;28;20240;-71
2023/07/12 10:32:05;;;;;;;0.00;0.00;;;;;;;;;;5086014;28;20246;-72
2023/07/12 10:34:35;;;;;;;0.00;0.00;;;;;;;;;;5065586;28;20254;-71
2023/07/12 10:37:05;;;;;;;0.00;0.00;;;;;;;;;;5085467;28;20257;-71
2023/07/12 10:39:31;;;;;;;0.00;0.00;;;;;;;;;;5065611;28;20203;-71
2023/07/12 10:41:59;;;;;;;0.50;0.50;;;;;;;;;;5083886;28;20302;-72
2023/07/12 10:44:30;;;;;;;0.00;0.00;;;;;;;;;;5067051;28;20235;-72
2023/07/12 10:46:58;;;;;;;0.00;0.00;;;;;;;;;;5083620;28;20304;-71
2023/07/12 10:49:40;;;;;;;0.00;0.00;;;;;;;;;;5067577;28;20212;-71
2023/07/12 10:52:16;;;;;;;0.10;0.10;;;;;;;;;;5086401;28;20234;-71
2023/07/12 10:54:51;;;;;;;0.10;0.10;;;;;;;;;;5064845;28;20241;-71
2023/07/12 10:57:27;;;;;;;0.00;0.00;;;;;;;;;;5086817;28;20308;-71
2023/07/12 11:00:03;;;;;;;0.00;0.00;;;;;;;;;;5064397;28;20289;-72
2023/07/12 11:02:30;;;;;;;0.00;0.00;;;;;;;;;;5086593;28;20235;-71
2023/07/12 11:04:56;;;;;;;0.10;0.10;;;;;;;;;;5064711;28;20231;-73
2023/07/12 11:07:30;;;;;;;1.48;1.38;;;;;;;;;;5086530;28;20243;-72
2023/07/12 11:10:04;;;;;;;1.27;1.23;;;;;;;;;;5064309;28;20208;-72
2023/07/12 11:12:38;;;;;;;0.05;0.05;;;;;;;;;;5086360;28;20299;-72
2023/07/12 11:15:19;;;;;;;0.00;0.00;;;;;;;;;;5064591;28;20541;-73
2023/07/12 11:17:51;;;;;;;8.20;1.70;;;;;;;;;;5064202;28;20417;-73
2023/07/12 11:20:22;;;;;;;0.00;0.00;;;;;;;;;;5056920;28;20204;-74
2023/07/12 11:22:54;;;;;;;2.85;1.17;;;;;;;;;;5092427;28;20377;-73
2023/07/12 11:25:29;;;;;;;0.00;0.00;;;;;;;;;;5057261;28;20453;-73
2023/07/12 11:27:58;;;;;;;0.20;0.20;;;;;;;;;;5090388;28;20271;-74
2023/07/12 11:30:37;;;;;;;0.00;0.00;;;;;;;;;;5058414;28;20204;-73
2023/07/12 11:33:15;;;;;;;0.00;0.00;;;;;;;;;;5088403;28;20231;-74
2023/07/12 11:35:43;;;;;;;0.00;0.00;;;;;;;;;;5062989;28;20249;-74
2023/07/12 11:38:13;;;;;;;0.00;0.00;;;;;;;;;;5086591;28;20211;-74
2023/07/12 11:40:40;;;;;;;0.00;0.00;;;;;;;;;;5061815;28;20265;-74
2023/07/12 11:43:37;;;;;;;0.00;0.00;;;;;;;;;;5087284;28;20470;-74
2023/07/12 11:46:13;;;;;;;0.10;0.10;;;;;;;;;;5012072;28;20249;-74
2023/07/12 11:48:41;;;;;;;0.00;0.00;;;;;;;;;;5060068;28;20203;-73
2023/07/12 11:51:09;;;;;;;0.00;0.00;;;;;;;;;;5069450;28;20615;-74
2023/07/12 11:53:36;;;;;;;0.03;0.03;;;;;;;;;;5079525;28;20484;-74
2023/07/12 11:56:02;;;;;;;0.00;0.00;;;;;;;;;;5067888;28;20302;-74
2023/07/12 11:58:30;;;;;;;0.00;0.00;;;;;;;;;;5081089;28;20211;-74
2023/07/12 12:00:58;;;;;;;0.00;0.00;;;;;;;;;;5065576;28;20247;-73
2023/07/12 12:03:26;;;;;;;0.03;0.03;;;;;;;;;;5083278;28;20528;-74
2023/07/12 12:05:53;;;;;;;0.00;0.00;;;;;;;;;;5065437;28;20238;-74
2023/07/12 12:08:21;;;;;;;0.00;0.00;;;;;;;;;;5083425;28;20274;-73
2023/07/12 12:10:48;;;;;;;0.00;0.00;;;;;;;;;;5064204;28;20262;-74
2023/07/12 12:13:16;;;;;;;0.00;0.00;;;;;;;;;;5084848;28;20204;-74
2023/07/12 12:15:44;;;;;;;0.00;0.00;;;;;;;;;;5061958;28;20242;-74
2023/07/12 12:18:14;;;;;;;0.00;0.00;;;;;;;;;;5086356;28;20407;-73
2023/07/12 12:20:51;;;;;;;0.55;0.55;;;;;;;;;;5062369;28;20314;-74
2023/07/12 12:23:22;;;;;;;0.00;0.00;;;;;;;;;;5084198;28;20279;-74
2023/07/12 12:25:49;;;;;;;0.00;0.00;;;;;;;;;;5063671;28;20301;-74
2023/07/12 12:28:24;;;;;;;0.00;0.00;;;;;;;;;;5085113;28;20270;-73
2023/07/12 12:30:57;;;;;;;0.00;0.00;;;;;;;;;;5064068;28;20234;-74
2023/07/12 12:33:24;;;;;;;0.00;0.00;;;;;;;;;;5082528;28;20223;-74
2023/07/12 12:35:57;;;;;;;0.00;0.00;;;;;;;;;;5064844;28;20234;-73
2023/07/12 12:38:26;;;;;;;0.00;0.00;;;;;;;;;;5082397;28;20207;-74
2023/07/12 12:40:53;;;;;;;0.00;0.00;;;;;;;;;;5065251;28;20245;-74
2023/07/12 12:43:20;;;;;;;0.00;0.00;;;;;;;;;;5082992;28;20234;-73
2023/07/12 12:45:46;;;;;;;0.00;0.00;;;;;;;;;;5063361;28;20297;-72
2023/07/12 12:48:13;;;;;;;0.00;0.00;;;;;;;;;;5085321;28;20243;-72
2023/07/12 12:50:40;;;;;;;0.10;0.10;;;;;;;;;;5061578;28;20245;-72
2023/07/12 12:53:10;;;;;;;0.00;0.00;;;;;;;;;;5088967;28;20220;-73
2023/07/12 12:55:37;;;;;;;0.00;0.00;;;;;;;;;;5064724;28;20250;-73
2023/07/12 12:58:04;;;;;;;0.00;0.00;;;;;;;;;;5091164;28;20206;-76
2023/07/12 13:00:30;;;;;;;0.03;0.03;;;;;;;;;;5062803;28;20289;-76
2023/07/12 13:02:57;;;;;;;0.00;0.00;;;;;;;;;;5092943;28;20251;-76
2023/07/12 13:05:25;;;;;;;0.00;0.00;;;;;;;;;;5061106;28;20242;-76
2023/07/12 13:07:52;;;;;;;0.00;0.00;;;;;;;;;;5094266;28;20363;-76
2023/07/12 13:10:21;;;;;;;0.00;0.00;;;;;;;;;;5059569;28;20211;-76
2023/07/12 13:12:48;;;;;;;0.08;0.08;;;;;;;;;;5095493;28;20220;-76
2023/07/12 13:15:15;;;;;;;0.00;0.00;;;;;;;;;;5058073;28;20242;-76
2023/07/12 13:17:42;;;;;;;0.00;0.00;;;;;;;;;;5096779;28;20191;-77
2023/07/12 13:20:11;;;;;;;0.00;0.00;;;;;;;;;;5059219;28;20204;-75
2023/07/12 13:22:37;;;;;;;0.00;0.00;;;;;;;;;;5097907;28;20486;-76
2023/07/12 13:25:04;;;;;;;0.00;0.00;;;;;;;;;;5066628;28;20211;-76
2023/07/12 13:27:33;;;;;;;0.00;0.00;;;;;;;;;;5088422;28;20338;-76
2023/07/12 13:30:00;;;;;;;0.00;0.00;;;;;;;;;;5066389;28;20236;-76
2023/07/12 13:32:27;;;;;;;0.00;0.00;;;;;;;;;;5088355;28;20570;-76
2023/07/12 13:34:54;;;;;;;0.00;0.00;;;;;;;;;;5066082;28;20403;-76
2023/07/12 13:37:21;;;;;;;0.00;0.00;;;;;;;;;;5088287;28;20299;-76
2023/07/12 13:39:48;;;;;;;13.32;0.90;;;;;;;;;;5066143;28;20306;-75
2023/07/12 13:42:14;;;;;;;0.00;0.00;;;;;;;;;;5087953;28;20298;-75
2023/07/12 13:44:43;;;;;;;0.00;0.00;;;;;;;;;;5066082;28;20204;-76
2023/07/12 13:47:14;;;;;;;0.00;0.00;;;;;;;;;;5087933;28;20242;-76
2023/07/12 13:49:41;;;;;;;0.00;0.00;;;;;;;;;;5066031;28;20205;-75
2023/07/12 13:52:10;;;;;;;0.00;0.00;;;;;;;;;;5087823;28;20235;-76
2023/07/12 13:54:37;;;;;;;0.00;0.00;;;;;;;;;;5066062;28;20204;-76
2023/07/12 13:57:32;;;;;;;0.00;0.00;;;;;;;;;;5087832;28;20234;-76
2023/07/12 14:00:00;;;;;;;0.00;0.00;;;;;;;;;;5065795;28;20258;-76
2023/07/12 14:02:27;;;;;;;0.00;0.00;;;;;;;;;;5087724;28;20306;-76
2023/07/12 14:04:54;;;;;;;0.10;0.10;;;;;;;;;;5064978;28;20232;-76
2023/07/12 14:07:21;;;;;;;0.00;0.00;;;;;;;;;;5087752;28;20433;-76
2023/07/12 14:09:47;;;;;;;0.10;0.10;;;;;;;;;;5065914;28;20271;-77
2023/07/12 14:12:14;;;;;;;0.00;0.00;;;;;;;;;;5087966;28;20250;-76
2023/07/12 14:14:41;;;;;;;0.00;0.00;;;;;;;;;;5065598;28;20210;-77
2023/07/12 14:20:12;;;;;;;0.00;0.00;;;;;;;;;;5052753;28;20211;-76
2023/07/12 14:22:39;;;;;;;0.00;0.00;;;;;;;;;;5096468;28;20243;-76
2023/07/12 14:25:05;;;;;;;0.00;0.00;;;;;;;;;;5065297;28;20235;-76
2023/07/12 14:27:33;;;;;;;0.00;0.00;;;;;;;;;;5087295;28;20248;-76
2023/07/12 14:30:00;;;;;;;0.20;0.20;;;;;;;;;;5065375;28;20212;-76
2023/07/12 14:32:30;;;;;;;0.00;0.00;;;;;;;;;;5087256;28;20234;-76
2023/07/12 14:34:56;;;;;;;0.40;0.40;;;;;;;;;;5065332;28;20207;-77
2023/07/12 14:37:24;;;;;;;0.00;0.00;;;;;;;;;;5087048;28;20261;-76
2023/07/12 14:39:51;;;;;;;0.00;0.00;;;;;;;;;;5064912;28;20309;-75
2023/07/12 14:42:18;;;;;;;0.00;0.00;;;;;;;;;;5086886;28;20250;-76
2023/07/12 14:44:44;;;;;;;0.00;0.00;;;;;;;;;;5065035;28;20235;-75
2023/07/12 14:47:11;;;;;;;0.00;0.00;;;;;;;;;;5086846;28;20472;-76
2023/07/12 14:49:38;;;;;;;0.47;0.40;;;;;;;;;;5064971;28;20204;-76